Accueil
METAR-TAF:

METAR-TAF

Aéroports :

Base aérienne 709 Cognac-Châteaubernard

Cognac, France

latitude: 45-40N, longitude: 000-19W, altitude: 30 m

Observation

Le bulletin a été fait il y a 11 minutes, à 19:30 UTC
Vent 5 kt de nord/nord-est
Température 16°C
Humidité 77%
Pression 1028 hPa
Visibilité 10 km ou plus
pas de nuages en-dessous de 1500 mètres et pas de cumulonimbus.

METAR: LFBG 061930Z AUTO 03005KT CAVOK 16/12 Q1028 NOSIG

Heure: 21:41 (19:41 UTC)

Prévision

Le bulletin a été fait il y a 5 heures et 41 minutes, à 14:00 UTC
Prévision valable du 06 à 15 UTC au 07 à 15 UTC
Vent 10 kt de nord/nord-est
Visibilité 10 km ou plus
Nuages épars à une hauteur de 3000 ft
Temporairement
du 07 à 04 UTC au 07 à 07 UTC
Visibilité: 0800 m
bancs de brouillard

TAF: LFBG 061400Z 0615/0715 03010KT 9999 SCT030 TEMPO 0704/0707 0800 BCFG

Observations et prévisions météorologiques de plus de 4000 aéroports (messages METAR et TAF).

Les stations disponibles sont représentées par des disques jaunes et rouges sur la carte.

Passer la souris dessus pour voir le nom de la station.

Cliquer dessus pour voir les observations et prévisions météorologiques.

Pour changer de carte: cliquez sur les boutons verts avec une croix noire pour zoomer, sur le bouton vert avec un tiret pour effectuer un zoom arrière, ou sur les flèches vertes pour les cartes adjacentes.


METAR-TAF: